sensor_id;sensor_type;location;lat;lon;timestamp;pressure;altitude;pressure_sealevel;temperature;humidity
46087;BME280;31824;49.648;8.640;2023-02-23T00:02:28;100011.69;;;9.66;100.00
46087;BME280;31824;49.648;8.640;2023-02-23T00:05:34;100021.59;;;9.59;100.00
46087;BME280;31824;49.648;8.640;2023-02-23T00:08:39;100014.88;;;9.53;100.00
46087;BME280;31824;49.648;8.640;2023-02-23T00:11:44;100023.09;;;9.47;100.00
46087;BME280;31824;49.648;8.640;2023-02-23T00:14:46;100023.44;;;9.41;100.00
46087;BME280;31824;49.648;8.640;2023-02-23T00:17:48;100018.47;;;9.44;100.00
46087;BME280;31824;49.648;8.640;2023-02-23T00:20:54;100023.09;;;9.47;100.00
46087;BME280;31824;49.648;8.640;2023-02-23T00:24:00;100016.63;;;9.43;100.00
46087;BME280;31824;49.648;8.640;2023-02-23T00:27:02;100014.81;;;9.42;100.00
46087;BME280;31824;49.648;8.640;2023-02-23T00:30:09;100027.59;;;9.39;100.00
46087;BME280;31824;49.648;8.640;2023-02-23T00:33:10;100017.09;;;9.39;100.00
46087;BME280;31824;49.648;8.640;2023-02-23T00:36:14;100028.06;;;9.44;100.00
46087;BME280;31824;49.648;8.640;2023-02-23T00:39:17;100021.31;;;9.37;100.00
46087;BME280;31824;49.648;8.640;2023-02-23T00:42:22;100026.84;;;9.40;100.00
46087;BME280;31824;49.648;8.640;2023-02-23T00:45:24;100023.31;;;9.40;100.00
46087;BME280;31824;49.648;8.640;2023-02-23T00:48:27;100021.00;;;9.34;100.00
46087;BME280;31824;49.648;8.640;2023-02-23T00:51:29;100020.72;;;9.31;100.00
46087;BME280;31824;49.648;8.640;2023-02-23T00:54:33;100024.84;;;9.38;100.00
46087;BME280;31824;49.648;8.640;2023-02-23T00:57:35;100020.50;;;9.38;100.00
46087;BME280;31824;49.648;8.640;2023-02-23T01:00:39;100016.56;;;9.33;100.00
46087;BME280;31824;49.648;8.640;2023-02-23T01:03:43;100018.09;;;9.31;100.00
46087;BME280;31824;49.648;8.640;2023-02-23T01:06:45;100013.06;;;9.24;100.00
46087;BME280;31824;49.648;8.640;2023-02-23T01:09:48;100016.41;;;9.32;100.00
46087;BME280;31824;49.648;8.640;2023-02-23T01:12:53;100010.22;;;9.31;100.00
46087;BME280;31824;49.648;8.640;2023-02-23T01:15:56;100012.91;;;9.22;100.00
46087;BME280;31824;49.648;8.640;2023-02-23T01:19:02;100017.81;;;9.28;100.00
46087;BME280;31824;49.648;8.640;2023-02-23T01:22:04;100018.22;;;9.33;100.00
46087;BME280;31824;49.648;8.640;2023-02-23T01:25:09;100018.97;;;9.40;100.00
46087;BME280;31824;49.648;8.640;2023-02-23T01:28:12;100012.06;;;9.32;100.00
46087;BME280;31824;49.648;8.640;2023-02-23T01:31:14;100013.63;;;9.30;100.00
46087;BME280;31824;49.648;8.640;2023-02-23T01:34:18;100010.56;;;9.25;100.00
46087;BME280;31824;49.648;8.640;2023-02-23T01:37:22;100011.00;;;9.30;100.00
46087;BME280;31824;49.648;8.640;2023-02-23T01:40:27;100006.56;;;9.29;100.00
46087;BME280;31824;49.648;8.640;2023-02-23T01:43:32;99996.84;;;9.28;100.00
46087;BME280;31824;49.648;8.640;2023-02-23T01:46:35;100007.47;;;9.29;100.00
46087;BME280;31824;49.648;8.640;2023-02-23T01:49:51;100004.06;;;9.31;100.00
46087;BME280;31824;49.648;8.640;2023-02-23T01:52:53;100002.81;;;9.36;100.00
46087;BME280;31824;49.648;8.640;2023-02-23T01:56:00;100005.47;;;9.27;100.00
46087;BME280;31824;49.648;8.640;2023-02-23T01:59:06;99997.13;;;9.31;100.00
46087;BME280;31824;49.648;8.640;2023-02-23T02:02:09;99987.13;;;9.27;100.00
46087;BME280;31824;49.648;8.640;2023-02-23T02:05:12;99996.84;;;9.28;100.00
46087;BME280;31824;49.648;8.640;2023-02-23T02:08:22;99993.06;;;9.16;100.00
46087;BME280;31824;49.648;8.640;2023-02-23T02:11:31;99996.31;;;9.13;100.00
46087;BME280;31824;49.648;8.640;2023-02-23T02:14:39;99994.59;;;9.13;100.00
46087;BME280;31824;49.648;8.640;2023-02-23T02:17:48;99995.56;;;9.14;100.00
46087;BME280;31824;49.648;8.640;2023-02-23T02:28:36;99983.09;;;9.31;100.00
46087;BME280;31824;49.648;8.640;2023-02-23T02:35:45;99977.59;;;9.27;100.00
46087;BME280;31824;49.648;8.640;2023-02-23T02:39:04;99972.47;;;9.29;100.00
46087;BME280;31824;49.648;8.640;2023-02-23T02:42:19;99972.63;;;9.31;100.00
46087;BME280;31824;49.648;8.640;2023-02-23T02:45:28;99971.88;;;9.23;100.00
46087;BME280;31824;49.648;8.640;2023-02-23T02:48:39;99967.41;;;9.22;100.00
46087;BME280;31824;49.648;8.640;2023-02-23T02:51:52;99969.41;;;9.24;100.00
46087;BME280;31824;49.648;8.640;2023-02-23T02:55:06;99965.59;;;9.21;100.00
46087;BME280;31824;49.648;8.640;2023-02-23T02:58:18;99964.03;;;9.23;100.00
46087;BME280;31824;49.648;8.640;2023-02-23T03:01:23;99963.75;;;9.20;100.00
46087;BME280;31824;49.648;8.640;2023-02-23T03:04:56;99961.03;;;9.09;100.00
46087;BME280;31824;49.648;8.640;2023-02-23T03:08:21;99963.38;;;9.06;100.00
46087;BME280;31824;49.648;8.640;2023-02-23T03:11:57;99961.09;;;9.01;100.00
46087;BME280;31824;49.648;8.640;2023-02-23T03:15:44;99961.34;;;9.12;100.00
46087;BME280;31824;49.648;8.640;2023-02-23T03:19:17;99964.38;;;9.17;100.00
46087;BME280;31824;49.648;8.640;2023-02-23T03:22:46;99960.91;;;9.27;100.00
46087;BME280;31824;49.648;8.640;2023-02-23T03:26:20;99958.66;;;9.21;100.00
46087;BME280;31824;49.648;8.640;2023-02-23T03:29:50;99960.91;;;9.27;100.00
46087;BME280;31824;49.648;8.640;2023-02-23T03:33:18;99960.00;;;9.26;100.00
46087;BME280;31824;49.648;8.640;2023-02-23T03:36:45;99955.19;;;9.31;100.00
46087;BME280;31824;49.648;8.640;2023-02-23T03:40:12;99957.25;;;9.25;100.00
46087;BME280;31824;49.648;8.640;2023-02-23T03:43:40;99962.50;;;9.25;100.00
46087;BME280;31824;49.648;8.640;2023-02-23T03:47:08;99957.81;;;9.31;100.00
46087;BME280;31824;49.648;8.640;2023-02-23T03:50:39;99957.09;;;9.23;100.00
46087;BME280;31824;49.648;8.640;2023-02-23T03:54:03;99957.16;;;9.15;100.00
46087;BME280;31824;49.648;8.640;2023-02-23T03:57:30;99954.81;;;9.18;100.00
46087;BME280;31824;49.648;8.640;2023-02-23T04:01:03;99958.38;;;9.18;100.00
46087;BME280;31824;49.648;8.640;2023-02-23T04:04:30;99957.75;;;9.21;100.00
46087;BME280;31824;49.648;8.640;2023-02-23T04:08:05;99960.34;;;9.21;100.00
46087;BME280;31824;49.648;8.640;2023-02-23T04:11:36;99968.63;;;9.25;100.00
46087;BME280;31824;49.648;8.640;2023-02-23T04:15:06;99963.13;;;9.22;100.00
46087;BME280;31824;49.648;8.640;2023-02-23T04:18:11;99965.16;;;9.16;100.00
46087;BME280;31824;49.648;8.640;2023-02-23T04:21:17;99965.78;;;9.13;100.00
46087;BME280;31824;49.648;8.640;2023-02-23T04:24:22;99964.88;;;9.13;100.00
46087;BME280;31824;49.648;8.640;2023-02-23T04:27:27;99963.25;;;9.24;100.00
46087;BME280;31824;49.648;8.640;2023-02-23T04:30:33;99961.91;;;9.19;100.00
46087;BME280;31824;49.648;8.640;2023-02-23T04:33:37;99964.53;;;9.19;100.00
46087;BME280;31824;49.648;8.640;2023-02-23T04:36:41;99976.72;;;9.18;100.00
46087;BME280;31824;49.648;8.640;2023-02-23T04:39:45;99976.38;;;9.24;100.00
46087;BME280;31824;49.648;8.640;2023-02-23T04:42:53;99972.53;;;9.20;100.00
46087;BME280;31824;49.648;8.640;2023-02-23T04:45:57;99974.78;;;9.26;100.00
46087;BME280;31824;49.648;8.640;2023-02-23T04:49:02;99974.97;;;9.27;100.00
46087;BME280;31824;49.648;8.640;2023-02-23T04:52:09;99981.53;;;9.33;100.00
46087;BME280;31824;49.648;8.640;2023-02-23T04:55:16;99972.63;;;9.31;100.00
46087;BME280;31824;49.648;8.640;2023-02-23T04:58:21;99980.47;;;9.31;100.00
46087;BME280;31824;49.648;8.640;2023-02-23T05:01:25;99975.09;;;9.29;100.00
46087;BME280;31824;49.648;8.640;2023-02-23T05:04:30;99983.72;;;9.28;100.00
46087;BME280;31824;49.648;8.640;2023-02-23T05:07:38;99977.59;;;9.27;100.00
46087;BME280;31824;49.648;8.640;2023-02-23T05:10:42;99983.47;;;9.25;100.00
46087;BME280;31824;49.648;8.640;2023-02-23T05:13:46;99983.16;;;9.22;100.00
46087;BME280;31824;49.648;8.640;2023-02-23T05:16:51;99978.06;;;9.23;100.00
46087;BME280;31824;49.648;8.640;2023-02-23T05:19:55;99975.44;;;9.23;100.00
46087;BME280;31824;49.648;8.640;2023-02-23T05:23:01;99987.00;;;9.25;100.00
46087;BME280;31824;49.648;8.640;2023-02-23T05:26:09;99977.28;;;9.24;100.00
46087;BME280;31824;49.648;8.640;2023-02-23T05:29:15;99985.28;;;9.26;100.00
46087;BME280;31824;49.648;8.640;2023-02-23T05:32:18;99978.22;;;9.25;100.00
46087;BME280;31824;49.648;8.640;2023-02-23T05:35:40;99975.44;;;9.23;100.00
46087;BME280;31824;49.648;8.640;2023-02-23T05:39:36;99985.94;;;9.23;100.00
46087;BME280;31824;49.648;8.640;2023-02-23T05:44:10;99989.34;;;9.22;100.00
46087;BME280;31824;49.648;8.640;2023-02-23T05:58:35;99987.00;;;9.25;100.00
46087;BME280;31824;49.648;8.640;2023-02-23T06:01:58;99986.09;;;9.25;100.00
46087;BME280;31824;49.648;8.640;2023-02-23T06:05:02;99983.47;;;9.25;100.00
46087;BME280;31824;49.648;8.640;2023-02-23T06:09:18;99983.16;;;9.22;100.00
46087;BME280;31824;49.648;8.640;2023-02-23T06:14:17;99996.84;;;9.28;100.00
46087;BME280;31824;49.648;8.640;2023-02-23T06:18:01;99984.38;;;9.25;100.00
46087;BME280;31824;49.648;8.640;2023-02-23T06:21:12;99988.69;;;9.25;100.00
46087;BME280;31824;49.648;8.640;2023-02-23T06:25:02;99996.56;;;9.25;100.00
46087;BME280;31824;49.648;8.640;2023-02-23T06:39:57;100012.78;;;9.21;100.00
46087;BME280;31824;49.648;8.640;2023-02-23T06:43:03;100012.91;;;9.22;100.00
46087;BME280;31824;49.648;8.640;2023-02-23T06:46:12;100015.69;;;9.24;100.00
46087;BME280;31824;49.648;8.640;2023-02-23T06:49:14;100017.53;;;9.25;100.00
46087;BME280;31824;49.648;8.640;2023-02-23T06:52:19;100012.16;;;9.23;100.00
46087;BME280;31824;49.648;8.640;2023-02-23T06:55:23;100019.34;;;9.26;100.00
46087;BME280;31824;49.648;8.640;2023-02-23T06:58:25;100024.59;;;9.26;100.00
46087;BME280;31824;49.648;8.640;2023-02-23T07:01:29;100028.66;;;9.22;100.00
46087;BME280;31824;49.648;8.640;2023-02-23T07:04:33;100031.69;;;9.27;100.00
46087;BME280;31824;49.648;8.640;2023-02-23T07:07:36;100030.56;;;9.34;100.00
46087;BME280;31824;49.648;8.640;2023-02-23T07:10:41;100038.84;;;9.38;100.00
46087;BME280;31824;49.648;8.640;2023-02-23T07:13:44;100036.22;;;9.38;100.00
46087;BME280;31824;49.648;8.640;2023-02-23T07:16:47;100037.19;;;9.39;100.00
46087;BME280;31824;49.648;8.640;2023-02-23T07:19:50;100037.47;;;9.42;100.00
46087;BME280;31824;49.648;8.640;2023-02-23T07:22:54;100041.34;;;9.37;100.00
46087;BME280;31824;49.648;8.640;2023-02-23T07:25:59;100048.56;;;9.39;100.00
46087;BME280;31824;49.648;8.640;2023-02-23T07:29:02;100046.25;;;9.42;100.00
46087;BME280;31824;49.648;8.640;2023-02-23T07:32:05;100044.84;;;9.46;100.00
46087;BME280;31824;49.648;8.640;2023-02-23T07:35:10;100046.69;;;9.47;100.00
46087;BME280;31824;49.648;8.640;2023-02-23T07:38:14;100044.34;;;9.50;100.00
46087;BME280;31824;49.648;8.640;2023-02-23T07:41:18;100042.81;;;9.52;100.00
46087;BME280;31824;49.648;8.640;2023-02-23T07:44:22;100041.09;;;9.53;100.00
46087;BME280;31824;49.648;8.640;2023-02-23T07:47:25;100045.84;;;9.57;100.00
46087;BME280;31824;49.648;8.640;2023-02-23T07:50:32;100050.94;;;9.55;100.00
46087;BME280;31824;49.648;8.640;2023-02-23T07:53:35;100052.34;;;9.52;100.00
46087;BME280;31824;49.648;8.640;2023-02-23T07:56:41;100050.03;;;9.55;100.00
46087;BME280;31824;49.648;8.640;2023-02-23T07:59:43;100056.81;;;9.53;100.00
46087;BME280;31824;49.648;8.640;2023-02-23T08:02:45;100054.47;;;9.56;100.00
46087;BME280;31824;49.648;8.640;2023-02-23T08:05:48;100052.94;;;9.58;100.00
46087;BME280;31824;49.648;8.640;2023-02-23T08:08:50;100064.78;;;9.63;100.00
46087;BME280;31824;49.648;8.640;2023-02-23T08:11:56;100059.41;;;9.61;100.00
46087;BME280;31824;49.648;8.640;2023-02-23T08:14:59;100065.28;;;9.59;100.00
46087;BME280;31824;49.648;8.640;2023-02-23T08:18:02;100068.47;;;9.65;100.00
46087;BME280;31824;49.648;8.640;2023-02-23T08:21:06;100066.28;;;9.70;100.00
46087;BME280;31824;49.648;8.640;2023-02-23T08:24:08;100076.78;;;9.70;100.00
46087;BME280;31824;49.648;8.640;2023-02-23T08:27:14;100074.00;;;9.68;100.00
46087;BME280;31824;49.648;8.640;2023-02-23T08:30:21;100070.94;;;9.63;100.00
46087;BME280;31824;49.648;8.640;2023-02-23T08:33:28;100077.09;;;9.64;100.00
46087;BME280;31824;49.648;8.640;2023-02-23T08:36:39;100079.44;;;9.61;100.00
46087;BME280;31824;49.648;8.640;2023-02-23T08:39:42;100075.56;;;9.66;100.00
46087;BME280;31824;49.648;8.640;2023-02-23T08:43:09;100080.94;;;9.68;100.00
46087;BME280;31824;49.648;8.640;2023-02-23T08:46:18;100088.19;;;9.70;100.00
46087;BME280;31824;49.648;8.640;2023-02-23T08:49:24;100082.34;;;9.64;100.00
46087;BME280;31824;49.648;8.640;2023-02-23T08:52:29;100088.56;;;9.56;100.00
46087;BME280;31824;49.648;8.640;2023-02-23T08:55:32;100086.13;;;9.57;100.00
46087;BME280;31824;49.648;8.640;2023-02-23T08:58:38;100084.41;;;9.58;100.00
46087;BME280;31824;49.648;8.640;2023-02-23T09:01:42;100081.94;;;9.59;100.00
46087;BME280;31824;49.648;8.640;2023-02-23T09:04:44;100087.59;;;9.64;100.00
46087;BME280;31824;49.648;8.640;2023-02-23T09:07:47;100084.34;;;9.67;100.00
46087;BME280;31824;49.648;8.640;2023-02-23T09:10:50;100093.16;;;9.67;100.00
46087;BME280;31824;49.648;8.640;2023-02-23T09:13:54;100086.34;;;9.69;100.00
46087;BME280;31824;49.648;8.640;2023-02-23T09:16:57;100087.84;;;9.76;100.00
46087;BME280;31824;49.648;8.640;2023-02-23T09:20:00;100082.81;;;9.88;100.00
46087;BME280;31824;49.648;8.640;2023-02-23T09:23:03;100095.31;;;9.90;100.00
46087;BME280;31824;49.648;8.640;2023-02-23T09:26:07;100096.00;;;9.98;100.00
46087;BME280;31824;49.648;8.640;2023-02-23T09:29:11;100097.72;;;9.97;100.00
46087;BME280;31824;49.648;8.640;2023-02-23T09:32:14;100101.09;;;9.96;100.00
46087;BME280;31824;49.648;8.640;2023-02-23T09:35:19;100099.63;;;10.09;100.00
46087;BME280;31824;49.648;8.640;2023-02-23T09:38:22;100094.44;;;10.19;100.00
46087;BME280;31824;49.648;8.640;2023-02-23T09:41:44;100101.59;;;10.50;100.00
46087;BME280;31824;49.648;8.640;2023-02-23T09:45:01;100097.19;;;10.59;100.00
46087;BME280;31824;49.648;8.640;2023-02-23T09:48:13;100100.84;;;10.80;100.00
46087;BME280;31824;49.648;8.640;2023-02-23T09:51:19;100090.72;;;10.74;100.00
46087;BME280;31824;49.648;8.640;2023-02-23T09:54:25;100091.50;;;10.73;100.00
46087;BME280;31824;49.648;8.640;2023-02-23T09:57:36;100094.06;;;10.92;100.00
46087;BME280;31824;49.648;8.640;2023-02-23T10:00:43;100099.84;;;10.98;100.00
46087;BME280;31824;49.648;8.640;2023-02-23T10:03:52;100102.41;;;11.07;100.00
46087;BME280;31824;49.648;8.640;2023-02-23T10:07:01;100100.72;;;11.28;100.00
46087;BME280;31824;49.648;8.640;2023-02-23T10:10:17;100098.38;;;10.92;100.00
46087;BME280;31824;49.648;8.640;2023-02-23T10:13:29;100092.69;;;11.17;100.00
46087;BME280;31824;49.648;8.640;2023-02-23T10:16:47;100100.59;;;11.27;100.00
46087;BME280;31824;49.648;8.640;2023-02-23T10:19:59;100104.28;;;11.39;100.00
46087;BME280;31824;49.648;8.640;2023-02-23T10:23:09;100110.63;;;11.52;100.00
46087;BME280;31824;49.648;8.640;2023-02-23T10:26:23;100111.56;;;11.52;100.00
46087;BME280;31824;49.648;8.640;2023-02-23T10:29:33;100108.00;;;11.62;100.00
46087;BME280;31824;49.648;8.640;2023-02-23T10:32:57;100111.03;;;11.66;100.00
46087;BME280;31824;49.648;8.640;2023-02-23T10:36:11;100105.50;;;11.63;100.00
46087;BME280;31824;49.648;8.640;2023-02-23T10:39:29;100106.00;;;11.39;100.00
46087;BME280;31824;49.648;8.640;2023-02-23T10:42:35;100109.94;;;11.23;100.00
46087;BME280;31824;49.648;8.640;2023-02-23T10:45:56;100108.38;;;11.36;100.00
46087;BME280;31824;49.648;8.640;2023-02-23T10:49:18;100118.66;;;11.53;100.00
46087;BME280;31824;49.648;8.640;2023-02-23T10:52:26;100116.44;;;11.78;100.00
46087;BME280;31824;49.648;8.640;2023-02-23T10:55:33;100108.00;;;12.24;100.00
46087;BME280;31824;49.648;8.640;2023-02-23T10:58:40;100102.81;;;12.56;100.00
46087;BME280;31824;49.648;8.640;2023-02-23T11:01:45;100095.72;;;12.55;100.00
46087;BME280;31824;49.648;8.640;2023-02-23T11:05:06;100104.34;;;11.80;100.00
46087;BME280;31824;49.648;8.640;2023-02-23T11:08:46;100103.66;;;11.83;100.00
46087;BME280;31824;49.648;8.640;2023-02-23T11:12:01;100101.03;;;11.52;100.00
46087;BME280;31824;49.648;8.640;2023-02-23T11:15:25;100100.63;;;11.37;100.00
46087;BME280;31824;49.648;8.640;2023-02-23T11:18:52;100097.88;;;11.36;100.00
46087;BME280;31824;49.648;8.640;2023-02-23T11:21:56;100098.78;;;11.36;100.00
46087;BME280;31824;49.648;8.640;2023-02-23T11:25:00;100101.75;;;11.20;100.00
46087;BME280;31824;49.648;8.640;2023-02-23T11:28:04;100107.88;;;11.50;100.00
46087;BME280;31824;49.648;8.640;2023-02-23T11:31:16;100098.28;;;11.71;100.00
46087;BME280;31824;49.648;8.640;2023-02-23T11:34:26;100096.19;;;11.88;100.00
46087;BME280;31824;49.648;8.640;2023-02-23T11:37:31;100082.63;;;11.62;100.00
46087;BME280;31824;49.648;8.640;2023-02-23T11:40:33;100080.25;;;11.55;100.00
46087;BME280;31824;49.648;8.640;2023-02-23T11:43:35;100076.97;;;11.89;100.00
46087;BME280;31824;49.648;8.640;2023-02-23T11:46:37;100074.22;;;11.97;100.00
46087;BME280;31824;49.648;8.640;2023-02-23T11:49:43;100081.19;;;12.18;100.00
46087;BME280;31824;49.648;8.640;2023-02-23T11:52:48;100080.28;;;12.49;100.00
46087;BME280;31824;49.648;8.640;2023-02-23T11:55:54;100076.31;;;12.55;100.00
46087;BME280;31824;49.648;8.640;2023-02-23T11:59:02;100077.63;;;13.14;100.00
46087;BME280;31824;49.648;8.640;2023-02-23T12:02:20;100067.75;;;12.90;100.00
46087;BME280;31824;49.648;8.640;2023-02-23T12:05:24;100068.06;;;12.82;100.00
46087;BME280;31824;49.648;8.640;2023-02-23T12:08:34;100063.59;;;13.04;100.00
46087;BME280;31824;49.648;8.640;2023-02-23T12:11:41;100063.84;;;13.29;100.00
46087;BME280;31824;49.648;8.640;2023-02-23T12:15:04;100063.97;;;13.08;100.00
46087;BME280;31824;49.648;8.640;2023-02-23T12:18:18;100060.59;;;12.99;100.00
46087;BME280;31824;49.648;8.640;2023-02-23T12:21:38;100053.91;;;13.14;100.00
46087;BME280;31824;49.648;8.640;2023-02-23T12:24:58;100055.19;;;13.20;100.00
46087;BME280;31824;49.648;8.640;2023-02-23T12:28:08;100048.81;;;13.28;100.00
46087;BME280;31824;49.648;8.640;2023-02-23T12:31:23;100038.69;;;13.90;100.00
46087;BME280;31824;49.648;8.640;2023-02-23T12:34:31;100035.88;;;14.23;100.00
46087;BME280;31824;49.648;8.640;2023-02-23T12:37:40;100032.25;;;14.58;100.00
46087;BME280;31824;49.648;8.640;2023-02-23T12:40:45;100033.53;;;14.75;100.00
46087;BME280;31824;49.648;8.640;2023-02-23T12:43:50;100028.75;;;14.33;100.00
46087;BME280;31824;49.648;8.640;2023-02-23T12:46:56;100032.06;;;13.49;100.00
46087;BME280;31824;49.648;8.640;2023-02-23T12:50:05;100034.53;;;13.14;100.00
46087;BME280;31824;49.648;8.640;2023-02-23T12:53:19;100024.63;;;13.33;100.00
46087;BME280;31824;49.648;8.640;2023-02-23T12:56:41;100023.31;;;13.39;100.00
46087;BME280;31824;49.648;8.640;2023-02-23T13:00:17;100028.63;;;12.84;100.00
46087;BME280;31824;49.648;8.640;2023-02-23T13:03:52;100030.16;;;13.14;100.00
46087;BME280;31824;49.648;8.640;2023-02-23T13:07:02;100028.13;;;13.22;100.00
46087;BME280;31824;49.648;8.640;2023-02-23T13:10:13;100013.66;;;13.39;100.00
46087;BME280;31824;49.648;8.640;2023-02-23T13:13:32;100019.06;;;13.18;100.00
46087;BME280;31824;49.648;8.640;2023-02-23T13:16:41;100029.13;;;13.12;100.00
46087;BME280;31824;49.648;8.640;2023-02-23T13:19:49;100029.84;;;13.22;100.00
46087;BME280;31824;49.648;8.640;2023-02-23T13:22:56;100027.53;;;13.37;100.00
46087;BME280;31824;49.648;8.640;2023-02-23T13:26:12;100011.13;;;13.87;100.00
46087;BME280;31824;49.648;8.640;2023-02-23T13:29:30;100014.03;;;13.44;100.00
46087;BME280;31824;49.648;8.640;2023-02-23T13:32:34;100012.44;;;14.04;100.00
46087;BME280;31824;49.648;8.640;2023-02-23T13:35:38;100012.75;;;14.44;100.00
46087;BME280;31824;49.648;8.640;2023-02-23T13:38:49;100007.47;;;13.84;100.00
46087;BME280;31824;49.648;8.640;2023-02-23T13:42:17;100009.47;;;13.65;100.00
46087;BME280;31824;49.648;8.640;2023-02-23T13:45:28;100002.97;;;13.83;100.00
46087;BME280;31824;49.648;8.640;2023-02-23T13:48:41;100008.47;;;13.75;100.00
46087;BME280;31824;49.648;8.640;2023-02-23T13:52:17;100016.31;;;13.17;100.00
46087;BME280;31824;49.648;8.640;2023-02-23T13:55:36;100016.69;;;13.56;100.00
46087;BME280;31824;49.648;8.640;2023-02-23T13:58:53;100018.88;;;13.27;100.00
46087;BME280;31824;49.648;8.640;2023-02-23T14:02:04;100016.56;;;13.42;100.00
46087;BME280;31824;49.648;8.640;2023-02-23T14:05:16;100016.34;;;13.29;100.00
46087;BME280;31824;49.648;8.640;2023-02-23T14:08:22;100021.47;;;13.15;100.00
46087;BME280;31824;49.648;8.640;2023-02-23T14:11:44;100018.88;;;12.83;100.00
46087;BME280;31824;49.648;8.640;2023-02-23T14:14:46;100018.97;;;12.95;100.00
46087;BME280;31824;49.648;8.640;2023-02-23T14:17:56;100018.59;;;13.12;100.00
46087;BME280;31824;49.648;8.640;2023-02-23T14:21:04;100012.88;;;12.96;100.00
46087;BME280;31824;49.648;8.640;2023-02-23T14:24:15;100017.72;;;13.24;100.00
46087;BME280;31824;49.648;8.640;2023-02-23T14:27:22;100013.19;;;12.89;100.00
46087;BME280;31824;49.648;8.640;2023-02-23T14:30:44;100017.81;;;12.81;100.00
46087;BME280;31824;49.648;8.640;2023-02-23T14:33:55;100015.06;;;12.79;100.00
46087;BME280;31824;49.648;8.640;2023-02-23T14:37:11;100018.44;;;12.89;100.00
46087;BME280;31824;49.648;8.640;2023-02-23T14:40:17;100014.94;;;12.78;100.00
46087;BME280;31824;49.648;8.640;2023-02-23T14:43:40;100011.75;;;12.60;100.00
46087;BME280;31824;49.648;8.640;2023-02-23T14:46:53;100009.75;;;12.68;100.00
46087;BME280;31824;49.648;8.640;2023-02-23T14:50:00;100014.34;;;12.70;100.00
46087;BME280;31824;49.648;8.640;2023-02-23T14:53:02;100006.97;;;12.66;100.00
46087;BME280;31824;49.648;8.640;2023-02-23T14:56:16;100007.13;;;12.68;100.00
46087;BME280;31824;49.648;8.640;2023-02-23T14:59:20;100011.44;;;12.67;100.00
46087;BME280;31824;49.648;8.640;2023-02-23T15:02:25;100012.00;;;12.63;100.00
46087;BME280;31824;49.648;8.640;2023-02-23T15:05:30;100008.44;;;12.62;100.00
46087;BME280;31824;49.648;8.640;2023-02-23T15:08:36;100000.31;;;12.59;100.00
46087;BME280;31824;49.648;8.640;2023-02-23T15:11:38;100007.03;;;12.56;100.00
46087;BME280;31824;49.648;8.640;2023-02-23T15:19:38;100019.22;;;12.43;100.00
46087;BME280;31824;49.648;8.640;2023-02-23T15:22:46;100016.34;;;12.40;100.00
46087;BME280;31824;49.648;8.640;2023-02-23T15:25:50;100020.00;;;12.42;100.00
46087;BME280;31824;49.648;8.640;2023-02-23T15:29:05;100013.81;;;12.42;100.00
46087;BME280;31824;49.648;8.640;2023-02-23T15:32:18;100019.91;;;12.30;100.00
46087;BME280;31824;49.648;8.640;2023-02-23T15:35:25;100020.84;;;12.31;100.00
46087;BME280;31824;49.648;8.640;2023-02-23T15:38:36;100014.19;;;12.36;100.00
46087;BME280;31824;49.648;8.640;2023-02-23T15:41:48;100010.97;;;12.28;100.00
46087;BME280;31824;49.648;8.640;2023-02-23T15:44:55;100017.81;;;12.26;100.00
46087;BME280;31824;49.648;8.640;2023-02-23T15:48:03;100016.13;;;12.27;100.00
46087;BME280;31824;49.648;8.640;2023-02-23T15:51:34;100013.19;;;12.24;100.00
46087;BME280;31824;49.648;8.640;2023-02-23T15:54:50;100007.44;;;12.18;100.00
46087;BME280;31824;49.648;8.640;2023-02-23T15:58:10;100003.75;;;12.15;100.00
46087;BME280;31824;49.648;8.640;2023-02-23T16:01:23;100009.56;;;12.11;100.00
46087;BME280;31824;49.648;8.640;2023-02-23T16:04:30;100016.41;;;12.09;100.00
46087;BME280;31824;49.648;8.640;2023-02-23T16:07:40;100022.22;;;12.05;100.00
46087;BME280;31824;49.648;8.640;2023-02-23T16:10:47;100016.28;;;12.08;100.00
46087;BME280;31824;49.648;8.640;2023-02-23T16:13:51;100015.09;;;12.04;100.00
46087;BME280;31824;49.648;8.640;2023-02-23T16:21:36;100012.63;;;11.95;100.00
46087;BME280;31824;49.648;8.640;2023-02-23T16:24:41;100018.69;;;11.94;100.00
46087;BME280;31824;49.648;8.640;2023-02-23T16:27:46;100017.59;;;11.92;100.00
46087;BME280;31824;49.648;8.640;2023-02-23T16:30:59;100014.47;;;11.86;100.00
46087;BME280;31824;49.648;8.640;2023-02-23T16:34:01;100014.34;;;11.74;100.00
46087;BME280;31824;49.648;8.640;2023-02-23T16:37:14;100025.50;;;11.72;100.00
46087;BME280;31824;49.648;8.640;2023-02-23T16:40:18;100030.00;;;11.62;100.00
46087;BME280;31824;49.648;8.640;2023-02-23T16:43:21;100027.88;;;11.58;100.00
46087;BME280;31824;49.648;8.640;2023-02-23T16:46:26;100036.44;;;11.56;100.00
46087;BME280;31824;49.648;8.640;2023-02-23T16:49:29;100036.06;;;11.51;100.00
46087;BME280;31824;49.648;8.640;2023-02-23T16:52:31;100038.97;;;11.44;100.00
46087;BME280;31824;49.648;8.640;2023-02-23T16:55:35;100036.19;;;11.42;100.00
46087;BME280;31824;49.648;8.640;2023-02-23T16:58:43;100035.91;;;11.29;100.00
46087;BME280;31824;49.648;8.640;2023-02-23T17:01:46;100033.03;;;11.36;100.00
46087;BME280;31824;49.648;8.640;2023-02-23T17:04:50;100036.31;;;11.34;100.00
46087;BME280;31824;49.648;8.640;2023-02-23T17:07:54;100041.97;;;11.28;100.00
46087;BME280;31824;49.648;8.640;2023-02-23T17:10:59;100039.72;;;11.22;100.00
46087;BME280;31824;49.648;8.640;2023-02-23T17:14:03;100037.88;;;11.21;100.00
46087;BME280;31824;49.648;8.640;2023-02-23T17:17:05;100039.59;;;11.21;100.00
46087;BME280;31824;49.648;8.640;2023-02-23T17:20:07;100048.66;;;11.14;100.00